Time;durP1;ratioP1;P1;durP2;ratioP2;P2;SDS_P1;SDS_P2;PMS_P1;PMS_P2;Temp;Humidity;BMP_temperature;BMP_pressure;BME280_temperature;BME280_humidity;BME280_pressure;Samples;Min_cycle;Max_cycle;Signal;HPM_P1;HPM_P2
2022/01/03 00:00:48;;;;;;;;;;;6.90;84.10;;;;;;5055303;28;19936;-63
2022/01/03 00:03:14;;;;;;;;;;;7.00;83.60;;;;;;5055166;28;20360;-63
2022/01/03 00:05:40;;;;;;;;;;;7.00;83.00;;;;;;5055078;28;19915;-62
2022/01/03 00:08:06;;;;;;;;;;;6.90;83.10;;;;;;5055244;28;20367;-63
2022/01/03 00:10:35;;;;;;;;;;;7.10;83.10;;;;;;5054907;28;19909;-63
2022/01/03 00:13:02;;;;;;;;;;;7.20;82.10;;;;;;5055089;28;19955;-64
2022/01/03 00:15:28;;;;;;;;;;;7.40;81.30;;;;;;5047693;28;19940;-62
2022/01/03 00:17:54;;;;;;;;;;;7.40;80.90;;;;;;5040656;28;19975;-63
2022/01/03 00:20:21;;;;;;;;;;;7.50;80.80;;;;;;5035019;28;19913;-63
2022/01/03 00:22:49;;;;;;;;;;;7.50;81.40;;;;;;5034835;28;19964;-62
2022/01/03 00:25:16;;;;;;;;;;;7.50;81.00;;;;;;5035060;28;19909;-64
2022/01/03 00:27:41;;;;;;;;;;;7.40;82.00;;;;;;5034728;28;19924;-64
2022/01/03 00:30:07;;;;;;;;;;;7.30;82.70;;;;;;5034701;28;19909;-63
2022/01/03 00:32:36;;;;;;;;;;;7.40;83.20;;;;;;5034510;28;19910;-63
2022/01/03 00:35:02;;;;;;;;;;;7.60;82.30;;;;;;5034640;28;19916;-62
2022/01/03 00:37:30;;;;;;;;;;;7.50;82.20;;;;;;5034376;28;20400;-63
2022/01/03 00:39:56;;;;;;;;;;;7.60;82.00;;;;;;5034527;28;19913;-65
2022/01/03 00:42:22;;;;;;;;;;;7.60;82.10;;;;;;5034719;28;19931;-62
2022/01/03 00:44:48;;;;;;;;;;;7.60;82.70;;;;;;5034313;28;19917;-63
2022/01/03 00:47:15;;;;;;;;;;;7.60;82.90;;;;;;5034206;28;19963;-64
2022/01/03 00:49:40;;;;;;;;;;;7.70;83.00;;;;;;5034499;28;19910;-63
2022/01/03 00:52:06;;;;;;;;;;;7.70;83.60;;;;;;5034330;28;19913;-62
2022/01/03 00:54:32;;;;;;;;;;;7.70;83.40;;;;;;5034363;28;19909;-63
2022/01/03 00:57:01;;;;;;;;;;;7.80;82.50;;;;;;5034175;28;19952;-63
2022/01/03 00:59:46;;;;;;;;;;;7.90;82.30;;;;;;5034143;28;20572;-64
2022/01/03 01:02:14;;;;;;;;;;;8.00;81.60;;;;;;5034248;28;19909;-64
2022/01/03 01:04:43;;;;;;;;;;;8.00;81.30;;;;;;5033872;28;19913;-63
2022/01/03 01:07:09;;;;;;;;;;;8.10;81.80;;;;;;5034028;28;19966;-63
2022/01/03 01:09:34;;;;;;;;;;;8.10;81.90;;;;;;5033921;28;19960;-63
2022/01/03 01:12:00;;;;;;;;;;;8.20;81.70;;;;;;5033969;28;19910;-64
2022/01/03 01:14:27;;;;;;;;;;;8.30;81.30;;;;;;5033816;28;19913;-64
2022/01/03 01:16:52;;;;;;;;;;;8.30;81.50;;;;;;5033883;28;19909;-64
2022/01/03 01:19:19;;;;;;;;;;;8.30;81.70;;;;;;5016523;28;19909;-64
2022/01/03 01:21:47;;;;;;;;;;;8.30;81.60;;;;;;5033812;28;19916;-63
2022/01/03 01:24:13;;;;;;;;;;;8.40;81.70;;;;;;5033719;28;19909;-64
2022/01/03 01:29:22;;;;;;;;;;;8.40;81.90;;;;;;5034155;28;20039;-64
2022/01/03 01:31:49;;;;;;;;;;;8.40;82.10;;;;;;5033417;28;20012;-65
2022/01/03 01:34:18;;;;;;;;;;;8.40;82.40;;;;;;5033832;28;19909;-65
2022/01/03 01:36:46;;;;;;;;;;;8.40;83.00;;;;;;5033265;28;19917;-65
2022/01/03 01:39:12;;;;;;;;;;;8.30;83.90;;;;;;5033574;28;20272;-65
2022/01/03 01:41:42;;;;;;;;;;;8.40;83.70;;;;;;5033431;28;19909;-64
2022/01/03 01:44:09;;;;;;;;;;;8.30;84.30;;;;;;5032694;28;19909;-65
2022/01/03 01:46:34;;;;;;;;;;;8.30;84.90;;;;;;5033559;28;19913;-66
2022/01/03 01:49:03;;;;;;;;;;;8.30;84.60;;;;;;5033541;28;20391;-65
2022/01/03 01:51:31;;;;;;;;;;;8.30;85.30;;;;;;5033275;28;19909;-66
2022/01/03 01:53:56;;;;;;;;;;;8.20;85.50;;;;;;5033584;28;19913;-64
2022/01/03 01:56:26;;;;;;;;;;;8.20;86.10;;;;;;5033398;28;20284;-65
2022/01/03 01:59:02;;;;;;;;;;;8.20;86.50;;;;;;5033362;28;19909;-63
2022/01/03 02:01:39;;;;;;;;;;;8.10;86.60;;;;;;5033204;28;19910;-63
2022/01/03 02:04:16;;;;;;;;;;;8.20;86.90;;;;;;5033267;28;19913;-64
2022/01/03 02:06:46;;;;;;;;;;;8.30;86.90;;;;;;5033067;28;19917;-65
2022/01/03 02:09:14;;;;;;;;;;;8.30;86.90;;;;;;5033319;28;20364;-65
2022/01/03 02:11:40;;;;;;;;;;;8.20;87.00;;;;;;5033018;28;20372;-64
2022/01/03 02:14:06;;;;;;;;;;;8.20;86.90;;;;;;5033168;28;19920;-66
2022/01/03 02:16:32;;;;;;;;;;;8.30;87.00;;;;;;5032935;28;19909;-68
2022/01/03 02:18:58;;;;;;;;;;;8.20;87.40;;;;;;5033194;28;19917;-66
2022/01/03 02:21:24;;;;;;;;;;;8.30;87.50;;;;;;5033155;28;19909;-64
2022/01/03 02:23:49;;;;;;;;;;;8.30;87.40;;;;;;5032915;28;20345;-64
2022/01/03 02:26:15;;;;;;;;;;;8.30;87.40;;;;;;5033130;28;19909;-64
2022/01/03 02:28:41;;;;;;;;;;;8.30;87.70;;;;;;5033077;28;19917;-64
2022/01/03 02:31:06;;;;;;;;;;;8.40;87.50;;;;;;5032966;28;19917;-64
2022/01/03 02:33:32;;;;;;;;;;;8.40;87.30;;;;;;5032943;28;19987;-64
2022/01/03 02:35:58;;;;;;;;;;;8.50;87.00;;;;;;5033060;28;19909;-65
2022/01/03 02:38:24;;;;;;;;;;;8.50;87.50;;;;;;5032970;28;20032;-68
2022/01/03 02:40:49;;;;;;;;;;;8.50;88.20;;;;;;5032926;28;19909;-69
2022/01/03 02:43:15;;;;;;;;;;;8.50;87.40;;;;;;5032800;28;19963;-64
2022/01/03 02:45:40;;;;;;;;;;;8.50;87.30;;;;;;5032804;28;19909;-68
2022/01/03 02:48:07;;;;;;;;;;;8.60;87.30;;;;;;5032772;28;20011;-66
2022/01/03 02:50:33;;;;;;;;;;;8.60;87.40;;;;;;5032791;28;19909;-67
2022/01/03 02:52:59;;;;;;;;;;;8.70;87.10;;;;;;5032796;28;19909;-64
2022/01/03 02:55:26;;;;;;;;;;;8.70;86.70;;;;;;5033883;28;19909;-65
2022/01/03 02:57:53;;;;;;;;;;;8.70;86.70;;;;;;5036540;28;19909;-64
2022/01/03 03:00:20;;;;;;;;;;;8.70;86.40;;;;;;5036576;28;19909;-64
2022/01/03 03:02:45;;;;;;;;;;;8.70;86.70;;;;;;5036506;28;20366;-65
2022/01/03 03:05:11;;;;;;;;;;;8.60;87.00;;;;;;5036278;28;20002;-66
2022/01/03 03:07:38;;;;;;;;;;;8.60;87.40;;;;;;5036189;28;20015;-64
2022/01/03 03:10:05;;;;;;;;;;;8.60;87.70;;;;;;5036258;28;19909;-65
2022/01/03 03:12:31;;;;;;;;;;;8.60;87.90;;;;;;5036068;28;19910;-67
2022/01/03 03:14:56;;;;;;;;;;;8.60;88.00;;;;;;5036117;28;20447;-64
2022/01/03 03:17:22;;;;;;;;;;;8.60;87.90;;;;;;5036056;28;19952;-68
2022/01/03 03:19:58;;;;;;;;;;;8.60;87.60;;;;;;5035763;28;19909;-64
2022/01/03 03:22:25;;;;;;;;;;;8.60;87.60;;;;;;5035923;28;20003;-66
2022/01/03 03:24:50;;;;;;;;;;;8.70;87.80;;;;;;5035591;28;19909;-64
2022/01/03 03:27:16;;;;;;;;;;;8.60;87.90;;;;;;5035670;28;19983;-65
2022/01/03 03:29:47;;;;;;;;;;;8.60;88.00;;;;;;5035680;28;19954;-67
2022/01/03 03:32:12;;;;;;;;;;;8.60;88.10;;;;;;5035756;28;19909;-65
2022/01/03 03:34:38;;;;;;;;;;;8.60;88.50;;;;;;5035487;28;19909;-65
2022/01/03 03:37:04;;;;;;;;;;;8.60;88.50;;;;;;5035462;28;19933;-66
2022/01/03 03:39:31;;;;;;;;;;;8.60;88.40;;;;;;5035412;28;19920;-65
2022/01/03 03:41:57;;;;;;;;;;;8.60;88.10;;;;;;5035521;28;19913;-65
2022/01/03 03:44:22;;;;;;;;;;;8.70;87.70;;;;;;5035263;28;19920;-66
2022/01/03 03:46:48;;;;;;;;;;;8.70;87.40;;;;;;5035382;28;19979;-64
2022/01/03 03:49:13;;;;;;;;;;;8.60;87.80;;;;;;5035380;28;19909;-63
2022/01/03 03:51:39;;;;;;;;;;;8.50;88.20;;;;;;5035382;28;19909;-64
2022/01/03 03:54:04;;;;;;;;;;;8.60;88.30;;;;;;5035287;28;19916;-66
2022/01/03 03:56:30;;;;;;;;;;;8.60;88.30;;;;;;5035017;28;19915;-66
2022/01/03 03:58:56;;;;;;;;;;;8.60;88.00;;;;;;5035289;28;19959;-64
2022/01/03 04:01:22;;;;;;;;;;;8.60;88.20;;;;;;5035084;28;19909;-66
2022/01/03 04:03:47;;;;;;;;;;;8.60;88.10;;;;;;5035039;28;19916;-66
2022/01/03 04:06:13;;;;;;;;;;;8.60;87.90;;;;;;5035002;28;19963;-65
2022/01/03 04:08:38;;;;;;;;;;;8.70;88.00;;;;;;5034456;28;19921;-65
2022/01/03 04:11:04;;;;;;;;;;;8.60;88.30;;;;;;5035266;28;20364;-66
2022/01/03 04:13:30;;;;;;;;;;;8.60;88.50;;;;;;5035244;28;19909;-65
2022/01/03 04:15:55;;;;;;;;;;;8.60;88.10;;;;;;5034994;28;19920;-67
2022/01/03 04:18:21;;;;;;;;;;;8.60;88.60;;;;;;5035477;28;19917;-67
2022/01/03 04:20:46;;;;;;;;;;;8.60;88.50;;;;;;5035194;28;19967;-64
2022/01/03 04:23:13;;;;;;;;;;;8.60;88.20;;;;;;5035047;28;19952;-67
2022/01/03 04:25:38;;;;;;;;;;;8.70;88.30;;;;;;5034832;28;19909;-63
2022/01/03 04:28:04;;;;;;;;;;;8.70;87.90;;;;;;5034585;28;19923;-62
2022/01/03 04:30:30;;;;;;;;;;;8.80;87.90;;;;;;5034725;28;20377;-64
2022/01/03 04:32:55;;;;;;;;;;;8.80;87.80;;;;;;5034518;28;19920;-63
2022/01/03 04:35:21;;;;;;;;;;;8.80;87.70;;;;;;5034664;28;19909;-65
2022/01/03 04:37:47;;;;;;;;;;;8.80;87.90;;;;;;5034230;28;19945;-62
2022/01/03 04:40:14;;;;;;;;;;;8.80;88.00;;;;;;5033536;28;20472;-64
2022/01/03 04:42:40;;;;;;;;;;;8.80;88.00;;;;;;5034311;28;19913;-64
2022/01/03 04:45:05;;;;;;;;;;;8.80;88.00;;;;;;5034292;28;19990;-65
2022/01/03 04:47:31;;;;;;;;;;;8.80;88.00;;;;;;5034292;28;20332;-66
2022/01/03 04:49:56;;;;;;;;;;;8.70;88.10;;;;;;5034288;28;19964;-68
2022/01/03 04:52:22;;;;;;;;;;;8.80;88.00;;;;;;5034056;28;19909;-67
2022/01/03 04:54:48;;;;;;;;;;;8.80;88.00;;;;;;5033864;28;20360;-63
2022/01/03 04:57:13;;;;;;;;;;;8.80;88.10;;;;;;5034004;28;19909;-66
2022/01/03 04:59:39;;;;;;;;;;;8.80;88.00;;;;;;5033801;28;19913;-68
2022/01/03 05:02:05;;;;;;;;;;;8.80;88.00;;;;;;5034442;28;20273;-68
2022/01/03 05:04:30;;;;;;;;;;;8.90;87.90;;;;;;5033790;28;20005;-66
2022/01/03 05:06:56;;;;;;;;;;;9.00;87.40;;;;;;5033789;28;19944;-69
2022/01/03 05:09:21;;;;;;;;;;;8.90;87.40;;;;;;5033829;28;19913;-67
2022/01/03 05:11:47;;;;;;;;;;;8.90;87.80;;;;;;5033944;28;19909;-68
2022/01/03 05:14:12;;;;;;;;;;;8.90;87.90;;;;;;5034189;28;19992;-69
2022/01/03 05:16:38;;;;;;;;;;;8.90;88.00;;;;;;5033830;28;20357;-70
2022/01/03 05:19:04;;;;;;;;;;;8.90;88.10;;;;;;5033819;28;19917;-70
2022/01/03 05:21:29;;;;;;;;;;;8.80;88.40;;;;;;5034081;28;19915;-68
2022/01/03 05:23:55;;;;;;;;;;;8.80;88.20;;;;;;5033678;28;19910;-68
2022/01/03 05:26:21;;;;;;;;;;;8.90;88.40;;;;;;5033730;28;19916;-72
2022/01/03 05:28:47;;;;;;;;;;;8.90;88.00;;;;;;5033752;28;19971;-63
2022/01/03 05:31:13;;;;;;;;;;;8.90;87.90;;;;;;5033694;28;19913;-63
2022/01/03 05:33:39;;;;;;;;;;;8.90;88.10;;;;;;5033670;28;20364;-63
2022/01/03 05:36:05;;;;;;;;;;;8.90;88.40;;;;;;5033453;28;19940;-64
2022/01/03 05:38:31;;;;;;;;;;;8.90;88.00;;;;;;5033439;28;20377;-63
2022/01/03 05:40:56;;;;;;;;;;;9.00;87.90;;;;;;5033593;28;19917;-62
2022/01/03 05:43:22;;;;;;;;;;;9.00;88.00;;;;;;5033501;28;19909;-64
2022/01/03 05:45:48;;;;;;;;;;;9.00;87.80;;;;;;5033434;28;19909;-63
2022/01/03 05:48:13;;;;;;;;;;;9.00;87.80;;;;;;5033378;28;19971;-64
2022/01/03 05:50:39;;;;;;;;;;;9.00;87.80;;;;;;5015805;28;19909;-65
2022/01/03 05:53:04;;;;;;;;;;;9.00;87.70;;;;;;5033328;28;19909;-63
2022/01/03 05:55:30;;;;;;;;;;;9.10;87.70;;;;;;5033219;28;20316;-63
2022/01/03 05:57:56;;;;;;;;;;;9.10;88.10;;;;;;5033567;28;19987;-65
2022/01/03 06:00:24;;;;;;;;;;;9.10;87.50;;;;;;5033427;28;19932;-63
2022/01/03 06:02:54;;;;;;;;;;;9.10;87.40;;;;;;5033170;28;19944;-62
2022/01/03 06:05:33;;;;;;;;;;;9.10;87.50;;;;;;5033418;28;19913;-63
2022/01/03 06:07:59;;;;;;;;;;;9.10;87.60;;;;;;5033567;28;20036;-62
2022/01/03 06:10:24;;;;;;;;;;;9.20;87.40;;;;;;5033517;28;20361;-66
2022/01/03 06:12:50;;;;;;;;;;;9.10;87.60;;;;;;5033036;28;19913;-63
2022/01/03 06:15:16;;;;;;;;;;;9.10;87.90;;;;;;5033372;28;19913;-67
2022/01/03 06:17:42;;;;;;;;;;;9.00;88.90;;;;;;5033173;28;19910;-67
2022/01/03 06:20:08;;;;;;;;;;;9.00;88.30;;;;;;5033265;28;19909;-63
2022/01/03 06:22:34;;;;;;;;;;;8.90;88.80;;;;;;5033274;28;19909;-63
2022/01/03 06:24:59;;;;;;;;;;;9.00;89.20;;;;;;5032966;28;19909;-64
2022/01/03 06:27:25;;;;;;;;;;;9.00;88.90;;;;;;5015530;28;20296;-64
2022/01/03 06:29:51;;;;;;;;;;;9.00;88.90;;;;;;5033178;28;20368;-63
2022/01/03 06:32:16;;;;;;;;;;;9.00;88.90;;;;;;5037057;28;20011;-64
2022/01/03 06:34:42;;;;;;;;;;;9.00;88.80;;;;;;5036838;28;19955;-63
2022/01/03 06:37:07;;;;;;;;;;;9.10;88.70;;;;;;5036669;28;19913;-64
2022/01/03 06:39:33;;;;;;;;;;;9.10;88.50;;;;;;5019173;28;20060;-63
2022/01/03 06:41:58;;;;;;;;;;;9.10;88.40;;;;;;5036935;28;20361;-63
2022/01/03 06:44:24;;;;;;;;;;;9.10;88.20;;;;;;5036752;28;19909;-63
2022/01/03 06:46:50;;;;;;;;;;;9.20;88.20;;;;;;5036734;28;19917;-63
2022/01/03 06:49:15;;;;;;;;;;;9.20;88.20;;;;;;5036519;28;20272;-63
2022/01/03 06:51:41;;;;;;;;;;;9.10;88.20;;;;;;5036615;28;19935;-63
2022/01/03 06:54:09;;;;;;;;;;;9.20;88.00;;;;;;5036728;28;19913;-63
2022/01/03 06:56:34;;;;;;;;;;;9.20;88.00;;;;;;5036746;28;19913;-63
2022/01/03 06:59:00;;;;;;;;;;;9.20;87.90;;;;;;5036578;28;19956;-64
2022/01/03 07:01:26;;;;;;;;;;;9.20;87.90;;;;;;5036408;28;20345;-64
2022/01/03 07:03:51;;;;;;;;;;;9.30;88.00;;;;;;5036166;28;19910;-64
2022/01/03 07:06:17;;;;;;;;;;;9.30;88.30;;;;;;5036437;28;19963;-70
2022/01/03 07:08:42;;;;;;;;;;;9.70;91.00;;;;;;5036107;28;20385;-65
2022/01/03 07:11:08;;;;;;;;;;;9.90;86.70;;;;;;5036223;28;19909;-63
2022/01/03 07:13:42;;;;;;;;;;;10.10;85.50;;;;;;5036173;28;19910;-64
2022/01/03 07:19:05;;;;;;;;;;;10.10;84.40;;;;;;5036044;28;19964;-61
2022/01/03 07:21:32;;;;;;;;;;;10.10;84.80;;;;;;5036935;28;19944;-62
2022/01/03 07:23:58;;;;;;;;;;;10.20;84.40;;;;;;5037135;28;19932;-61
2022/01/03 07:26:24;;;;;;;;;;;10.30;84.40;;;;;;5037909;28;20356;-64
2022/01/03 07:28:50;;;;;;;;;;;10.30;83.40;;;;;;5035924;28;20396;-65
2022/01/03 07:31:16;;;;;;;;;;;10.40;83.60;;;;;;5035803;28;19935;-64
2022/01/03 07:33:42;;;;;;;;;;;10.60;83.20;;;;;;5035686;28;20265;-63
2022/01/03 07:36:08;;;;;;;;;;;10.70;82.20;;;;;;5035860;28;19968;-63
2022/01/03 07:38:33;;;;;;;;;;;10.70;81.70;;;;;;5035453;28;20016;-59
2022/01/03 07:40:59;;;;;;;;;;;10.70;82.30;;;;;;5035605;28;19909;-62
2022/01/03 07:43:24;;;;;;;;;;;10.90;82.10;;;;;;5034326;28;19952;-64
2022/01/03 07:45:50;;;;;;;;;;;10.80;80.90;;;;;;5034917;28;19913;-65
2022/01/03 07:48:15;;;;;;;;;;;10.60;81.40;;;;;;5035446;28;19965;-75
2022/01/03 07:50:41;;;;;;;;;;;10.20;83.80;;;;;;5035581;28;19956;-64
2022/01/03 07:53:07;;;;;;;;;;;10.00;84.60;;;;;;5017428;28;19910;-65
2022/01/03 07:55:33;;;;;;;;;;;9.90;85.40;;;;;;5035324;28;20380;-64
2022/01/03 07:57:58;;;;;;;;;;;9.70;85.90;;;;;;5035277;28;19909;-63
2022/01/03 08:00:24;;;;;;;;;;;9.60;86.60;;;;;;5035134;28;19916;-62
2022/01/03 08:02:50;;;;;;;;;;;9.60;87.00;;;;;;5035012;28;19913;-63
2022/01/03 08:05:15;;;;;;;;;;;9.60;87.00;;;;;;5035315;28;19991;-62
2022/01/03 08:07:42;;;;;;;;;;;9.60;87.30;;;;;;5034858;28;20387;-64
2022/01/03 08:10:08;;;;;;;;;;;9.60;87.30;;;;;;5035178;28;19916;-63
2022/01/03 08:12:34;;;;;;;;;;;9.60;87.20;;;;;;5034995;28;19909;-61
2022/01/03 08:15:00;;;;;;;;;;;9.60;87.60;;;;;;5016985;28;19913;-62
2022/01/03 08:17:26;;;;;;;;;;;9.60;87.80;;;;;;5034982;28;20345;-64
2022/01/03 08:19:51;;;;;;;;;;;9.50;88.70;;;;;;5016931;28;19956;-64
2022/01/03 08:22:17;;;;;;;;;;;9.60;87.70;;;;;;5034765;28;19948;-63
2022/01/03 08:24:43;;;;;;;;;;;9.60;88.20;;;;;;5034508;28;20446;-61
2022/01/03 08:27:09;;;;;;;;;;;9.60;88.70;;;;;;5034449;28;20296;-62
2022/01/03 08:29:34;;;;;;;;;;;9.50;88.90;;;;;;5034631;28;19925;-64
2022/01/03 08:32:00;;;;;;;;;;;9.50;89.30;;;;;;5034917;28;19940;-64
2022/01/03 08:34:26;;;;;;;;;;;9.50;89.20;;;;;;5034697;28;19909;-65
2022/01/03 08:36:51;;;;;;;;;;;9.60;88.90;;;;;;5034248;28;19964;-61
2022/01/03 08:39:17;;;;;;;;;;;9.60;88.70;;;;;;5034442;28;19917;-63
2022/01/03 08:41:43;;;;;;;;;;;9.60;89.10;;;;;;5034220;28;19910;-66
2022/01/03 08:44:08;;;;;;;;;;;9.60;89.20;;;;;;5034294;28;20004;-59
2022/01/03 08:46:34;;;;;;;;;;;9.60;89.30;;;;;;5033992;28;19913;-62
2022/01/03 08:49:00;;;;;;;;;;;9.60;89.50;;;;;;5034487;28;20318;-61
2022/01/03 08:51:25;;;;;;;;;;;9.60;89.70;;;;;;5034103;28;19916;-62
2022/01/03 08:53:51;;;;;;;;;;;9.60;89.50;;;;;;5033811;28;19913;-63
2022/01/03 08:56:17;;;;;;;;;;;9.70;89.40;;;;;;5034065;28;19913;-59
2022/01/03 08:58:42;;;;;;;;;;;9.70;89.40;;;;;;5034048;28;19916;-61
2022/01/03 09:01:08;;;;;;;;;;;9.70;89.30;;;;;;5034172;28;19909;-64
2022/01/03 09:03:34;;;;;;;;;;;9.70;89.40;;;;;;5033888;28;19944;-62
2022/01/03 09:06:00;;;;;;;;;;;9.80;89.20;;;;;;5034177;28;19913;-62
2022/01/03 09:08:25;;;;;;;;;;;9.80;89.40;;;;;;5034305;28;19917;-62
2022/01/03 09:10:51;;;;;;;;;;;9.80;89.70;;;;;;5033874;28;19967;-67
2022/01/03 09:13:17;;;;;;;;;;;9.80;89.70;;;;;;5033782;28;20527;-62
2022/01/03 09:15:46;;;;;;;;;;;9.70;90.10;;;;;;5033931;28;19995;-60
2022/01/03 09:18:12;;;;;;;;;;;9.50;90.60;;;;;;5039420;28;19909;-68
2022/01/03 09:20:38;;;;;;;;;;;9.50;90.70;;;;;;5073756;28;20351;-61
2022/01/03 09:23:12;;;;;;;;;;;9.40;90.80;;;;;;5060005;28;19916;-62
2022/01/03 09:30:50;;;;;;;;;;;9.20;91.60;;;;;;5053141;28;19919;-64
2022/01/03 09:33:16;;;;;;;;;;;9.30;91.50;;;;;;5055781;28;19909;-68
2022/01/03 09:35:42;;;;;;;;;;;9.30;91.80;;;;;;5050845;28;19959;-60
2022/01/03 09:38:07;;;;;;;;;;;9.40;91.50;;;;;;5052455;28;20368;-61
2022/01/03 09:40:34;;;;;;;;;;;9.40;91.50;;;;;;5052870;28;19909;-59
2022/01/03 09:43:01;;;;;;;;;;;9.50;91.20;;;;;;5052785;28;19908;-67
2022/01/03 09:45:28;;;;;;;;;;;9.60;91.10;;;;;;5052615;28;20275;-66
2022/01/03 09:47:55;;;;;;;;;;;9.60;90.90;;;;;;5052572;28;19917;-70
2022/01/03 09:50:21;;;;;;;;;;;9.60;90.90;;;;;;5052541;28;19963;-63
2022/01/03 09:52:48;;;;;;;;;;;9.60;90.80;;;;;;5052460;28;19912;-65
2022/01/03 09:55:18;;;;;;;;;;;9.70;90.80;;;;;;5052467;28;19915;-72
2022/01/03 09:57:45;;;;;;;;;;;9.60;91.00;;;;;;5049683;28;19935;-65
2022/01/03 10:00:23;;;;;;;;;;;9.60;91.00;;;;;;5051761;28;19916;-63
2022/01/03 10:02:51;;;;;;;;;;;9.60;91.00;;;;;;5051941;28;20383;-70
2022/01/03 10:05:17;;;;;;;;;;;9.70;90.90;;;;;;5051707;28;19917;-68
2022/01/03 10:07:42;;;;;;;;;;;9.70;90.80;;;;;;5052186;28;19962;-62
2022/01/03 10:10:09;;;;;;;;;;;9.80;90.80;;;;;;5052987;28;19909;-66
2022/01/03 10:12:36;;;;;;;;;;;9.70;91.00;;;;;;5052292;28;19909;-68
2022/01/03 10:15:02;;;;;;;;;;;9.60;91.10;;;;;;5072021;28;19912;-72
2022/01/03 10:17:27;;;;;;;;;;;9.70;91.10;;;;;;5056968;28;19915;-66
2022/01/03 10:19:56;;;;;;;;;;;9.70;91.00;;;;;;5052144;28;19916;-70
2022/01/03 10:22:24;;;;;;;;;;;9.80;91.00;;;;;;5052521;28;19912;-63
2022/01/03 10:24:50;;;;;;;;;;;9.70;91.10;;;;;;5052213;28;19909;-65
2022/01/03 10:27:16;;;;;;;;;;;9.40;91.60;;;;;;5052120;28;20420;-65
2022/01/03 10:29:41;;;;;;;;;;;9.50;91.90;;;;;;5040330;28;20000;-66
2022/01/03 10:32:10;;;;;;;;;;;9.60;91.60;;;;;;5071909;28;19915;-65
2022/01/03 10:34:35;;;;;;;;;;;9.70;91.50;;;;;;5058538;28;19978;-67
2022/01/03 10:37:09;;;;;;;;;;;9.70;91.50;;;;;;5052110;28;20368;-69
2022/01/03 10:39:35;;;;;;;;;;;9.70;91.40;;;;;;5052301;28;19913;-67
2022/01/03 10:42:12;;;;;;;;;;;9.50;91.80;;;;;;5052648;28;20284;-66
2022/01/03 10:44:40;;;;;;;;;;;9.30;92.00;;;;;;5071464;28;19916;-68
2022/01/03 10:47:08;;;;;;;;;;;9.30;92.20;;;;;;5049604;28;19916;-68
2022/01/03 10:49:35;;;;;;;;;;;9.40;92.00;;;;;;5052039;28;19909;-66
2022/01/03 10:52:10;;;;;;;;;;;9.50;91.80;;;;;;5051830;28;20360;-68
2022/01/03 10:54:35;;;;;;;;;;;9.60;91.60;;;;;;5051797;28;19909;-65
2022/01/03 10:57:01;;;;;;;;;;;9.50;91.70;;;;;;5052108;28;19963;-65
2022/01/03 10:59:30;;;;;;;;;;;9.60;91.80;;;;;;5060099;28;19913;-63
2022/01/03 11:02:00;;;;;;;;;;;9.50;91.90;;;;;;5071612;28;19927;-67
2022/01/03 11:04:26;;;;;;;;;;;9.40;91.80;;;;;;5071661;28;19912;-71
2022/01/03 11:10:43;;;;;;;;;;;9.20;92.70;;;;;;5071748;28;19957;-67
2022/01/03 11:13:15;;;;;;;;;;;9.10;92.70;;;;;;5023150;28;19963;-71
2022/01/03 11:15:50;;;;;;;;;;;9.10;92.60;;;;;;5032020;28;20428;-63
2022/01/03 11:18:16;;;;;;;;;;;9.30;92.30;;;;;;5035114;28;19915;-65
2022/01/03 11:20:42;;;;;;;;;;;9.30;92.00;;;;;;5035528;28;19909;-63
2022/01/03 11:23:08;;;;;;;;;;;9.20;92.20;;;;;;5035363;28;19910;-69
2022/01/03 11:25:34;;;;;;;;;;;9.30;92.30;;;;;;5034912;28;19909;-66
2022/01/03 11:28:00;;;;;;;;;;;9.40;92.00;;;;;;5017111;28;20372;-63
2022/01/03 11:30:26;;;;;;;;;;;9.40;91.80;;;;;;5035162;28;19909;-62
2022/01/03 11:32:52;;;;;;;;;;;9.50;91.70;;;;;;5035174;28;19914;-65
2022/01/03 11:35:18;;;;;;;;;;;9.60;91.50;;;;;;5035195;28;19917;-72
2022/01/03 11:37:48;;;;;;;;;;;9.60;91.40;;;;;;5034940;28;19932;-71
2022/01/03 11:40:14;;;;;;;;;;;9.60;91.40;;;;;;5035911;28;19909;-68
2022/01/03 11:42:41;;;;;;;;;;;9.60;91.30;;;;;;5072996;28;19908;-73
2022/01/03 11:45:06;;;;;;;;;;;9.70;91.30;;;;;;5068615;28;19920;-68
2022/01/03 11:47:32;;;;;;;;;;;9.80;91.10;;;;;;5064745;28;19913;-65
2022/01/03 11:49:58;;;;;;;;;;;9.80;91.10;;;;;;5063395;28;20002;-71
2022/01/03 11:52:25;;;;;;;;;;;9.80;91.10;;;;;;5065479;28;19913;-68
2022/01/03 11:54:51;;;;;;;;;;;9.90;90.90;;;;;;5068354;28;20284;-66
2022/01/03 11:57:56;;;;;;;;;;;9.80;90.90;;;;;;5040200;28;19913;-63
2022/01/03 12:05:51;;;;;;;;;;;9.80;91.10;;;;;;5034734;28;19915;-74
2022/01/03 12:08:24;;;;;;;;;;;9.80;91.10;;;;;;5034244;28;20429;-69
2022/01/03 12:10:50;;;;;;;;;;;9.90;91.00;;;;;;5063930;28;19958;-67
2022/01/03 12:13:15;;;;;;;;;;;9.90;91.10;;;;;;5067315;28;19916;-67
2022/01/03 12:15:41;;;;;;;;;;;9.90;91.10;;;;;;5067837;28;19908;-69
2022/01/03 12:18:25;;;;;;;;;;;9.80;91.10;;;;;;5070553;28;19912;-69
2022/01/03 12:20:54;;;;;;;;;;;9.80;91.10;;;;;;5055372;28;20321;-71
2022/01/03 12:23:38;;;;;;;;;;;9.70;91.50;;;;;;5038649;28;20379;-64
2022/01/03 12:26:10;;;;;;;;;;;9.50;91.60;;;;;;5060189;28;19909;-66
2022/01/03 12:28:54;;;;;;;;;;;9.60;91.70;;;;;;5061060;28;20011;-69
2022/01/03 12:31:20;;;;;;;;;;;9.70;91.50;;;;;;5068088;28;19915;-66
2022/01/03 12:34:21;;;;;;;;;;;9.80;91.50;;;;;;5065004;28;19909;-70
2022/01/03 12:37:05;;;;;;;;;;;9.80;91.30;;;;;;4943464;28;20374;-65
2022/01/03 12:39:30;;;;;;;;;;;9.90;91.40;;;;;;5054133;28;19923;-67
2022/01/03 12:41:56;;;;;;;;;;;9.90;91.30;;;;;;5061988;28;19913;-65
2022/01/03 12:44:40;;;;;;;;;;;10.00;91.20;;;;;;5063068;28;20308;-68
2022/01/03 12:47:16;;;;;;;;;;;9.90;91.20;;;;;;5045588;28;19913;-67
2022/01/03 12:49:41;;;;;;;;;;;10.00;91.20;;;;;;5066610;28;19947;-63
2022/01/03 12:52:14;;;;;;;;;;;10.10;91.10;;;;;;5068322;28;19917;-65
2022/01/03 12:54:40;;;;;;;;;;;10.00;91.10;;;;;;5061982;28;19909;-67
2022/01/03 12:57:13;;;;;;;;;;;10.00;91.10;;;;;;5066078;28;19961;-66
2022/01/03 12:59:38;;;;;;;;;;;10.00;91.20;;;;;;5061147;28;19913;-65
2022/01/03 13:02:23;;;;;;;;;;;10.10;91.20;;;;;;5071774;28;20046;-67
2022/01/03 13:04:48;;;;;;;;;;;10.10;91.10;;;;;;5062533;28;19913;-68
2022/01/03 13:07:20;;;;;;;;;;;10.10;91.10;;;;;;5066323;28;19935;-68
2022/01/03 13:09:46;;;;;;;;;;;9.90;91.10;;;;;;5064073;28;20016;-69
2022/01/03 13:12:12;;;;;;;;;;;9.80;91.40;;;;;;5065355;28;20122;-68
2022/01/03 13:14:37;;;;;;;;;;;9.70;91.60;;;;;;5064127;28;19909;-68
2022/01/03 13:17:03;;;;;;;;;;;9.70;91.80;;;;;;5066079;28;19992;-68
2022/01/03 13:19:33;;;;;;;;;;;9.90;91.60;;;;;;5067636;28;19912;-68
2022/01/03 13:22:03;;;;;;;;;;;10.00;91.70;;;;;;5066190;28;19946;-66
2022/01/03 13:24:55;;;;;;;;;;;10.00;91.10;;;;;;5065095;28;19916;-68
2022/01/03 13:27:22;;;;;;;;;;;10.00;91.40;;;;;;5057481;28;19923;-68
2022/01/03 13:29:51;;;;;;;;;;;10.00;91.20;;;;;;5065781;28;20364;-69
2022/01/03 13:32:20;;;;;;;;;;;10.00;91.20;;;;;;5055507;28;19917;-74
2022/01/03 13:34:47;;;;;;;;;;;10.10;91.20;;;;;;5067919;28;20261;-66
2022/01/03 13:37:14;;;;;;;;;;;10.10;91.10;;;;;;5066342;28;19916;-66
2022/01/03 13:39:40;;;;;;;;;;;10.00;91.20;;;;;;5060233;28;19996;-62
2022/01/03 13:42:10;;;;;;;;;;;10.10;91.20;;;;;;5069338;28;20286;-74
2022/01/03 13:49:54;;;;;;;;;;;10.00;91.30;;;;;;5073219;28;19931;-69
2022/01/03 13:52:26;;;;;;;;;;;10.00;91.10;;;;;;5072340;28;20279;-68
2022/01/03 13:54:54;;;;;;;;;;;10.10;91.00;;;;;;5072527;28;19909;-65
2022/01/03 13:57:20;;;;;;;;;;;10.00;90.90;;;;;;5072480;28;20352;-64
2022/01/03 13:59:45;;;;;;;;;;;10.00;90.90;;;;;;5063370;28;19916;-62
2022/01/03 14:02:11;;;;;;;;;;;10.00;91.00;;;;;;5050462;28;20314;-66
2022/01/03 14:04:37;;;;;;;;;;;9.80;91.20;;;;;;5054182;28;20414;-64
2022/01/03 14:07:08;;;;;;;;;;;9.60;91.50;;;;;;5066870;28;19969;-60
2022/01/03 14:09:39;;;;;;;;;;;9.60;91.70;;;;;;5071435;28;19909;-71
2022/01/03 14:12:11;;;;;;;;;;;9.70;91.60;;;;;;5071470;28;19920;-66
2022/01/03 14:14:38;;;;;;;;;;;9.80;91.50;;;;;;5072148;28;19920;-70
2022/01/03 14:17:05;;;;;;;;;;;9.80;91.40;;;;;;5067354;28;19952;-69
2022/01/03 14:19:30;;;;;;;;;;;9.80;91.40;;;;;;5051934;28;19909;-71
2022/01/03 14:21:56;;;;;;;;;;;9.80;91.30;;;;;;5052022;28;19913;-64
2022/01/03 14:24:24;;;;;;;;;;;9.80;91.20;;;;;;5054184;28;19967;-71
2022/01/03 14:26:53;;;;;;;;;;;9.90;91.10;;;;;;5067213;28;20292;-64
2022/01/03 14:29:19;;;;;;;;;;;9.60;91.60;;;;;;5054567;28;19913;-67
2022/01/03 14:31:49;;;;;;;;;;;9.60;91.90;;;;;;5058038;28;19916;-72
2022/01/03 14:34:21;;;;;;;;;;;9.70;91.80;;;;;;5052082;28;19917;-66
2022/01/03 14:36:47;;;;;;;;;;;9.70;91.60;;;;;;5050994;28;19917;-68
2022/01/03 14:39:13;;;;;;;;;;;9.80;91.40;;;;;;5051975;28;20365;-69
2022/01/03 14:41:38;;;;;;;;;;;9.90;91.20;;;;;;5051821;28;19908;-63
2022/01/03 14:44:05;;;;;;;;;;;9.90;91.10;;;;;;5051994;28;19991;-63
2022/01/03 14:46:31;;;;;;;;;;;9.60;91.70;;;;;;5051783;28;19992;-69
2022/01/03 14:48:57;;;;;;;;;;;9.40;92.20;;;;;;5051995;28;20032;-67
2022/01/03 14:51:32;;;;;;;;;;;9.40;92.20;;;;;;5052956;28;19987;-69
2022/01/03 14:54:10;;;;;;;;;;;9.50;92.30;;;;;;5055718;28;20261;-63